Time;durP1;ratioP1;P1;durP2;ratioP2;P2;SDS_P1;SDS_P2;PMS_P1;PMS_P2;Temp;Humidity;BMP_temperature;BMP_pressure;BME280_temperature;BME280_humidity;BME280_pressure;Samples;Min_cycle;Max_cycle;Signal;HPM_P1;HPM_P2
2022/09/01 04:42:28;;;;;;;;;23.25;18.50;;;28.16;100930.52;;;;115944;1206;23922;-66
2022/09/01 04:44:58;;;;;;;;;19.50;16.75;;;28.43;100932.19;;;;117120;1193;25460;-68
2022/09/01 04:47:41;;;;;;;;;16.50;13.50;;;28.73;100927.55;;;;117070;1192;25626;-64
2022/09/01 04:50:15;;;;;;;;;19.00;16.75;;;28.93;100928.15;;;;117021;1193;25410;-62
2022/09/01 04:52:45;;;;;;;;;17.50;14.50;;;29.10;100933.37;;;;117072;1193;25376;-59
2022/09/01 04:55:16;;;;;;;;;19.67;16.33;;;29.23;100938.06;;;;117040;1193;25425;-63
2022/09/01 04:57:48;;;;;;;;;16.00;11.75;;;29.33;100939.23;;;;116913;1194;24985;-59
2022/09/01 05:00:22;;;;;;;;;15.00;13.33;;;29.50;100940.11;;;;117065;1193;24952;-63
2022/09/01 05:02:53;;;;;;;;;12.75;11.50;;;29.58;100939.23;;;;117021;1193;25412;-61
2022/09/01 05:05:22;;;;;;;;;18.75;15.00;;;29.57;100936.58;;;;117059;1193;24823;-60
2022/09/01 05:07:51;;;;;;;;;16.50;13.00;;;29.56;100933.41;;;;117070;1192;24913;-60
2022/09/01 05:10:21;;;;;;;;;22.50;17.50;;;29.67;100931.80;;;;117071;1193;25620;-59
2022/09/01 05:12:51;;;;;;;;;14.25;11.00;;;29.68;100933.98;;;;117084;1193;25067;-61
2022/09/01 05:15:19;;;;;;;;;17.67;14.00;;;29.78;100935.49;;;;116954;1194;25200;-59
2022/09/01 05:17:48;;;;;;;;;16.00;11.50;;;29.76;100936.19;;;;117064;1193;24918;-60
2022/09/01 05:20:19;;;;;;;;;18.00;14.00;;;29.80;100943.23;;;;117100;1194;25236;-59
2022/09/01 05:22:48;;;;;;;;;17.25;12.00;;;29.86;100940.14;;;;117088;1194;25417;-60
2022/09/01 05:25:17;;;;;;;;;18.75;12.25;;;29.91;100940.81;;;;117056;1194;25159;-59
2022/09/01 05:27:51;;;;;;;;;11.67;9.33;;;29.93;100939.58;;;;117078;1193;24930;-59
2022/09/01 05:30:19;;;;;;;;;16.67;13.00;;;29.96;100941.40;;;;117065;1193;25665;-59
2022/09/01 05:32:49;;;;;;;;;16.00;13.00;;;30.01;100940.19;;;;117102;1192;25161;-61
2022/09/01 05:35:17;;;;;;;;;18.50;13.50;;;30.06;100935.40;;;;117012;1194;25147;-60
2022/09/01 05:37:46;;;;;;;;;15.33;11.00;;;30.09;100936.66;;;;116997;1194;25314;-60
2022/09/01 05:40:14;;;;;;;;;16.75;11.50;;;30.12;100936.82;;;;117005;1193;24839;-60
2022/09/01 05:42:44;;;;;;;;;17.33;13.00;;;30.14;100937.25;;;;117092;1192;25069;-60
2022/09/01 05:45:13;;;;;;;;;18.75;16.50;;;30.20;100935.50;;;;117040;1194;25220;-59
2022/09/01 05:47:41;;;;;;;;;16.00;15.33;;;30.22;100936.08;;;;116953;1194;24895;-61
2022/09/01 05:50:10;;;;;;;;;13.50;10.50;;;30.24;100945.17;;;;117065;1193;24946;-63
2022/09/01 05:52:46;;;;;;;;;21.00;11.50;;;30.23;100950.45;;;;117010;1194;25377;-61
2022/09/01 05:55:15;;;;;;;;;14.50;13.00;;;30.28;100955.98;;;;116985;1193;25037;-64
2022/09/01 05:57:46;;;;;;;;;13.67;9.67;;;30.31;100959.67;;;;117101;1193;25308;-61
2022/09/01 06:00:16;;;;;;;;;18.25;12.50;;;30.36;100965.33;;;;116972;1193;24879;-64
2022/09/01 06:02:45;;;;;;;;;17.75;13.25;;;30.34;100968.33;;;;117109;1193;24881;-66
2022/09/01 06:05:14;;;;;;;;;20.00;12.25;;;30.35;100972.75;;;;117113;1194;25616;-61
2022/09/01 06:07:43;;;;;;;;;15.50;11.00;;;30.37;100975.33;;;;117048;1193;25804;-61
2022/09/01 06:10:13;;;;;;;;;22.75;11.75;;;30.35;100979.74;;;;117059;1193;25271;-60
2022/09/01 06:12:42;;;;;;;;;15.00;9.67;;;30.39;100984.04;;;;117011;1193;25018;-61
2022/09/01 06:15:14;;;;;;;;;10.00;9.50;;;30.43;100987.89;;;;116966;1193;25594;-61
2022/09/01 06:17:45;;;;;;;;;17.00;12.00;;;30.48;100991.45;;;;117044;1193;25162;-61
2022/09/01 06:20:17;;;;;;;;;13.67;12.67;;;30.46;100991.59;;;;117041;1193;24872;-61
2022/09/01 06:22:46;;;;;;;;;13.00;11.75;;;30.52;100988.09;;;;116860;1194;25198;-61
2022/09/01 06:25:17;;;;;;;;;17.00;12.00;;;30.54;100985.58;;;;117019;1193;25041;-61
2022/09/01 06:27:46;;;;;;;;;15.50;12.25;;;30.58;100988.55;;;;117090;1193;25367;-61
2022/09/01 06:30:19;;;;;;;;;11.25;11.25;;;30.57;100994.48;;;;117113;1194;25634;-60
2022/09/01 06:32:54;;;;;;;;;17.00;12.00;;;30.57;100994.17;;;;117141;1193;25483;-61
2022/09/01 06:35:28;;;;;;;;;18.00;13.00;;;30.60;100995.49;;;;117014;1192;25016;-62
2022/09/01 06:37:57;;;;;;;;;14.00;10.25;;;30.61;100997.53;;;;117102;1193;24860;-63
2022/09/01 06:40:26;;;;;;;;;17.25;14.00;;;30.61;100995.90;;;;116998;1193;25002;-64
2022/09/01 06:42:55;;;;;;;;;19.25;16.00;;;30.61;101000.66;;;;117053;1193;24813;-66
2022/09/01 06:45:23;;;;;;;;;13.75;11.75;;;30.46;101003.70;;;;116873;1194;25560;-64
2022/09/01 06:47:54;;;;;;;;;17.75;13.25;;;30.47;101002.23;;;;117108;1193;25709;-64
2022/09/01 06:50:27;;;;;;;;;17.75;16.75;;;30.37;101001.73;;;;117038;1193;24766;-66
2022/09/01 06:53:17;;;;;;;;;15.50;14.00;;;30.45;100998.42;;;;117066;1193;25443;-65
2022/09/01 06:56:02;;;;;;;;;12.25;11.75;;;30.49;101002.13;;;;116956;1192;25285;-62
2022/09/01 06:58:31;;;;;;;;;15.25;11.25;;;30.47;101002.48;;;;117075;1193;25050;-64
2022/09/01 07:01:05;;;;;;;;;14.25;13.25;;;30.41;100999.08;;;;117040;1192;25717;-63
2022/09/01 07:03:34;;;;;;;;;16.75;13.25;;;30.37;100997.49;;;;116969;1192;25467;-66
2022/09/01 07:06:05;;;;;;;;;19.67;13.33;;;30.40;100994.42;;;;117057;1193;24932;-65
2022/09/01 07:08:38;;;;;;;;;20.00;14.50;;;30.39;100996.13;;;;117055;1194;25698;-67
2022/09/01 07:11:30;;;;;;;;;19.00;14.75;;;30.46;100994.80;;;;117037;1193;25611;-66
2022/09/01 07:14:20;;;;;;;;;15.33;15.33;;;30.52;100993.65;;;;117070;1193;25236;-64
2022/09/01 07:16:49;;;;;;;;;15.75;12.75;;;30.54;100994.77;;;;117039;1193;25134;-64
2022/09/01 07:19:38;;;;;;;;;17.33;11.33;;;30.54;100997.05;;;;117054;1193;25218;-66
2022/09/01 07:22:21;;;;;;;;;19.75;17.25;;;30.53;100996.48;;;;117104;1193;25256;-66
2022/09/01 07:25:11;;;;;;;;;21.00;17.00;;;30.60;100993.24;;;;117035;1194;26509;-70
2022/09/01 07:27:47;;;;;;;;;17.75;17.25;;;30.63;100999.46;;;;117130;1194;25316;-66
2022/09/01 07:30:19;;;;;;;;;17.00;15.33;;;30.60;101002.08;;;;117001;1192;25900;-65
2022/09/01 07:32:52;;;;;;;;;17.00;15.00;;;30.61;101006.67;;;;116997;1193;25358;-67
2022/09/01 07:35:21;;;;;;;;;15.00;13.00;;;30.63;101008.17;;;;117088;1193;25058;-66
2022/09/01 07:37:50;;;;;;;;;16.00;10.00;;;30.60;101010.40;;;;117135;1193;25098;-65
2022/09/01 07:40:40;;;;;;;;;20.50;17.50;;;30.61;101011.73;;;;117016;1193;25389;-64
2022/09/01 07:43:30;;;;;;;;;17.67;14.67;;;30.68;101013.56;;;;116898;1194;25203;-67
2022/09/01 07:46:04;;;;;;;;;15.25;14.75;;;30.67;101012.23;;;;117049;1192;25201;-67
2022/09/01 07:48:54;;;;;;;;;18.50;12.50;;;30.75;101015.54;;;;117024;1193;25430;-72
2022/09/01 07:51:42;;;;;;;;;15.75;11.00;;;30.80;101016.14;;;;117073;1193;24834;-66
2022/09/01 07:54:12;;;;;;;;;18.00;14.25;;;30.76;101015.06;;;;117131;1193;24990;-66
2022/09/01 07:56:41;;;;;;;;;13.50;12.75;;;30.67;101016.39;;;;117084;1193;25675;-66
2022/09/01 07:59:10;;;;;;;;;13.75;10.25;;;30.67;101015.61;;;;117072;1193;25711;-67
2022/09/01 08:01:42;;;;;;;;;16.67;12.33;;;30.66;101010.64;;;;116894;1195;25263;-71
2022/09/01 08:04:10;;;;;;;;;13.50;12.75;;;30.64;101008.68;;;;117080;1193;25197;-67
2022/09/01 08:06:39;;;;;;;;;11.75;10.50;;;30.64;101005.15;;;;117093;1193;25564;-66
2022/09/01 08:09:09;;;;;;;;;14.50;11.50;;;30.49;101003.66;;;;116867;1195;25654;-67
2022/09/01 08:11:57;;;;;;;;;17.25;13.50;;;30.38;101001.14;;;;117087;1193;25688;-66
2022/09/01 08:14:30;;;;;;;;;12.75;10.75;;;30.39;100999.83;;;;117103;1193;25596;-67
2022/09/01 08:17:02;;;;;;;;;10.75;10.75;;;30.32;100997.20;;;;117058;1193;25656;-67
2022/09/01 08:19:52;;;;;;;;;12.25;11.00;;;30.46;100998.27;;;;117033;1194;25258;-65
2022/09/01 08:22:22;;;;;;;;;13.00;11.00;;;30.48;100999.82;;;;117139;1193;24717;-66
2022/09/01 08:24:52;;;;;;;;;14.00;12.50;;;30.49;101003.63;;;;117148;1191;25082;-68
2022/09/01 08:27:20;;;;;;;;;14.00;10.33;;;30.49;101005.12;;;;117119;1193;24921;-66
2022/09/01 08:29:48;;;;;;;;;13.50;10.00;;;30.54;101004.85;;;;117107;1191;25477;-66
2022/09/01 08:32:17;;;;;;;;;9.00;8.75;;;30.52;101006.16;;;;117105;1193;25209;-68
2022/09/01 08:34:45;;;;;;;;;13.50;8.25;;;30.54;101004.61;;;;117066;1192;25207;-69
2022/09/01 08:37:13;;;;;;;;;12.00;11.00;;;30.55;101001.54;;;;117057;1192;25000;-73
2022/09/01 08:39:41;;;;;;;;;13.00;12.00;;;30.56;100998.91;;;;117107;1191;25373;-67
2022/09/01 08:42:18;;;;;;;;;10.33;9.00;;;30.56;100999.45;;;;117112;1192;25620;-68
2022/09/01 08:44:53;;;;;;;;;17.67;14.00;;;30.52;100997.27;;;;117098;1193;24923;-64
2022/09/01 08:47:21;;;;;;;;;16.50;12.50;;;30.49;100994.63;;;;117089;1191;25040;-66
2022/09/01 08:50:11;;;;;;;;;12.00;6.75;;;30.57;100993.98;;;;117072;1191;24899;-65
2022/09/01 08:52:44;;;;;;;;;15.25;12.25;;;30.59;100992.39;;;;117115;1193;24755;-65
2022/09/01 08:55:28;;;;;;;;;15.50;12.50;;;30.64;100991.23;;;;117132;1192;25441;-68
2022/09/01 08:57:58;;;;;;;;;11.75;9.25;;;30.64;100989.50;;;;117277;1190;25195;-65
2022/09/01 09:00:38;;;;;;;;;11.50;11.00;;;30.63;100990.23;;;;117245;1191;24776;-66
2022/09/01 09:03:19;;;;;;;;;14.25;14.00;;;30.64;100986.58;;;;117405;1189;24909;-65
2022/09/01 09:05:57;;;;;;;;;15.00;9.67;;;30.63;100984.04;;;;117431;1191;25502;-66
2022/09/01 09:08:32;;;;;;;;;14.00;12.25;;;30.66;100983.38;;;;117439;1190;25467;-65
2022/09/01 09:11:05;;;;;;;;;13.75;12.50;;;30.66;100982.30;;;;117451;1191;24880;-67
2022/09/01 09:14:18;;;;;;;;;8.75;8.75;;;30.67;100982.48;;;;117421;1191;24850;-60
2022/09/01 09:16:49;;;;;;;;;14.75;12.00;;;30.74;100982.69;;;;117445;1190;25133;-71
2022/09/01 09:19:20;;;;;;;;;14.75;11.25;;;30.74;100981.17;;;;117397;1191;25429;-67
2022/09/01 09:21:52;;;;;;;;;12.25;9.50;;;30.64;100982.20;;;;117406;1190;24964;-64
2022/09/01 09:24:49;;;;;;;;;12.75;11.50;;;30.65;100978.24;;;;117420;1191;25130;-64
2022/09/01 09:27:18;;;;;;;;;12.00;10.00;;;30.58;100969.51;;;;117380;1190;25571;-64
2022/09/01 09:29:52;;;;;;;;;11.50;11.50;;;30.55;100975.17;;;;117399;1190;24903;-65
2022/09/01 09:32:22;;;;;;;;;11.25;10.25;;;30.56;100968.02;;;;117429;1190;25225;-65
2022/09/01 09:35:19;;;;;;;;;12.00;11.25;;;30.55;100968.33;;;;117131;1190;25531;-66
2022/09/01 09:37:48;;;;;;;;;15.00;12.00;;;30.63;100965.18;;;;117388;1191;24822;-63
2022/09/01 09:40:20;;;;;;;;;14.50;12.75;;;30.65;100969.17;;;;117394;1190;25362;-63
2022/09/01 09:42:55;;;;;;;;;9.25;7.50;;;30.65;100969.43;;;;117386;1190;25074;-64
2022/09/01 09:45:34;;;;;;;;;13.25;9.50;;;30.64;100972.55;;;;117405;1190;25420;-62
2022/09/01 09:48:06;;;;;;;;;15.50;12.00;;;30.65;100976.90;;;;117399;1190;25444;-64
2022/09/01 09:50:39;;;;;;;;;15.25;12.75;;;30.63;100982.52;;;;117394;1190;25022;-59
2022/09/01 09:53:14;;;;;;;;;18.00;13.00;;;30.57;100978.24;;;;117453;1190;24710;-65
2022/09/01 09:56:19;;;;;;;;;17.00;11.67;;;30.71;100976.42;;;;117447;1190;25074;-63
2022/09/01 09:58:48;;;;;;;;;19.00;15.50;;;30.93;100975.99;;;;117472;1187;25370;-64
2022/09/01 10:01:21;;;;;;;;;16.67;12.00;;;30.88;100974.42;;;;117566;1187;25694;-65
2022/09/01 10:04:03;;;;;;;;;11.25;11.25;;;30.72;100975.16;;;;117502;1189;25435;-66
2022/09/01 10:06:41;;;;;;;;;15.50;11.25;;;30.84;100972.95;;;;117684;1188;24772;-65
2022/09/01 10:09:29;;;;;;;;;12.00;10.00;;;30.68;100974.80;;;;117538;1188;25289;-65
2022/09/01 10:11:58;;;;;;;;;14.50;12.00;;;30.61;100969.04;;;;117376;1189;25703;-65
2022/09/01 10:14:49;;;;;;;;;12.67;11.67;;;30.63;100967.77;;;;117498;1188;25334;-64
2022/09/01 10:17:27;;;;;;;;;5.75;3.00;;;30.67;100958.33;;;;117856;1187;25193;-68
2022/09/01 10:20:03;;;;;;;;;12.25;11.75;;;30.69;100964.48;;;;117447;1189;25027;-66
2022/09/01 10:22:33;;;;;;;;;12.67;11.33;;;30.68;100961.97;;;;117663;1188;24761;-65
2022/09/01 10:25:04;;;;;;;;;13.50;12.50;;;30.67;100961.14;;;;117482;1188;25373;-64
2022/09/01 10:27:37;;;;;;;;;10.00;9.00;;;30.64;100959.67;;;;117420;1189;25295;-61
2022/09/01 10:30:16;;;;;;;;;16.00;12.00;;;30.66;100962.92;;;;117439;1188;24909;-62
2022/09/01 10:32:55;;;;;;;;;14.25;11.00;;;30.64;100968.17;;;;117421;1190;25428;-63
2022/09/01 10:35:36;;;;;;;;;8.50;8.25;;;30.63;100962.75;;;;117421;1189;24853;-62
2022/09/01 10:38:16;;;;;;;;;12.50;11.00;;;30.64;100952.08;;;;117419;1189;24847;-62
2022/09/01 10:41:05;;;;;;;;;6.50;6.00;;;30.87;100948.35;;;;117470;1189;25262;-63
2022/09/01 10:43:47;;;;;;;;;8.50;8.50;;;30.91;100942.19;;;;117501;1188;24862;-63
2022/09/01 10:46:18;;;;;;;;;9.00;8.00;;;30.85;100943.56;;;;117438;1189;25312;-62
2022/09/01 10:48:54;;;;;;;;;11.75;9.25;;;30.76;100943.31;;;;117436;1189;25795;-64
2022/09/01 10:51:30;;;;;;;;;10.67;9.67;;;30.71;100946.81;;;;117492;1188;24887;-62
2022/09/01 10:54:39;;;;;;;;;12.25;10.25;;;30.57;100944.35;;;;117425;1189;24811;-64
2022/09/01 10:57:25;;;;;;;;;9.75;9.75;;;30.62;100944.85;;;;117682;1188;25248;-63
2022/09/01 11:00:15;;;;;;;;;12.50;11.50;;;30.65;100937.55;;;;117614;1188;25499;-63
2022/09/01 11:03:10;;;;;;;;;9.33;9.33;;;30.60;100946.55;;;;117621;1187;24729;-63
2022/09/01 11:06:04;;;;;;;;;16.67;15.00;;;30.63;100935.85;;;;117868;1187;25139;-64
2022/09/01 11:08:47;;;;;;;;;16.33;12.67;;;30.59;100942.24;;;;117898;1187;25676;-61
2022/09/01 11:11:51;;;;;;;;;17.33;12.00;;;30.60;100937.48;;;;117507;1188;24739;-62
2022/09/01 11:14:22;;;;;;;;;11.50;10.50;;;30.66;100937.27;;;;117232;1190;24957;-71
2022/09/01 11:17:13;;;;;;;;;13.75;10.75;;;30.63;100935.06;;;;117399;1189;24836;-72
2022/09/01 11:20:02;;;;;;;;;10.67;8.67;;;30.68;100933.54;;;;117496;1189;25102;-70
2022/09/01 11:22:39;;;;;;;;;14.25;10.75;;;30.67;100929.73;;;;117806;1188;25689;-67
2022/09/01 11:25:32;;;;;;;;;13.75;8.75;;;30.59;100924.38;;;;117451;1188;24902;-67
2022/09/01 11:28:14;;;;;;;;;15.50;11.25;;;30.70;100922.04;;;;117589;1188;25066;-67
2022/09/01 11:31:07;;;;;;;;;6.00;6.00;;;30.75;100915.91;;;;117368;1189;25017;-67
2022/09/01 11:33:57;;;;;;;;;14.00;10.00;;;30.79;100909.48;;;;117618;1186;25261;-66
2022/09/01 11:36:44;;;;;;;;;10.75;9.25;;;30.74;100910.29;;;;117731;1187;25392;-65
2022/09/01 11:39:13;;;;;;;;;12.00;10.25;;;30.76;100913.50;;;;117786;1188;24721;-62
2022/09/01 11:41:50;;;;;;;;;10.33;10.00;;;30.62;100916.96;;;;117646;1188;25152;-67
2022/09/01 11:44:29;;;;;;;;;13.75;11.25;;;30.53;100912.82;;;;117778;1188;25287;-64
2022/09/01 11:47:06;;;;;;;;;11.50;9.75;;;30.58;100915.14;;;;117738;1186;24816;-64
2022/09/01 11:49:57;;;;;;;;;10.33;7.00;;;30.63;100910.73;;;;117438;1189;24698;-64
2022/09/01 11:52:29;;;;;;;;;11.75;10.25;;;30.65;100908.64;;;;117685;1188;25306;-63
2022/09/01 11:54:58;;;;;;;;;13.00;10.75;;;30.62;100903.02;;;;117477;1189;24861;-66
2022/09/01 11:57:36;;;;;;;;;12.25;10.00;;;30.63;100901.41;;;;117768;1187;25304;-65
2022/09/01 12:00:08;;;;;;;;;12.33;11.00;;;30.63;100898.66;;;;117471;1187;25380;-63
2022/09/01 12:02:44;;;;;;;;;13.75;12.75;;;30.63;100897.73;;;;117717;1187;25177;-64
2022/09/01 12:05:26;;;;;;;;;11.00;5.25;;;30.65;100891.95;;;;117692;1186;25087;-67
2022/09/01 12:07:55;;;;;;;;;12.75;11.25;;;30.66;100890.52;;;;117668;1187;25290;-64
2022/09/01 12:10:34;;;;;;;;;11.67;11.67;;;30.68;100878.10;;;;117602;1187;24966;-65
2022/09/01 12:13:17;;;;;;;;;11.50;10.50;;;30.55;100868.86;;;;117750;1188;24735;-65
2022/09/01 12:15:53;;;;;;;;;15.00;11.33;;;30.44;100873.52;;;;117678;1188;24873;-63
2022/09/01 12:18:48;;;;;;;;;12.00;12.00;;;30.32;100876.48;;;;117504;1187;25254;-64
2022/09/01 12:21:28;;;;;;;;;11.50;10.00;;;30.45;100881.48;;;;117731;1187;25523;-66
2022/09/01 12:24:16;;;;;;;;;10.50;10.00;;;30.47;100884.02;;;;117820;1186;25338;-64
2022/09/01 12:26:46;;;;;;;;;10.50;9.75;;;30.45;100886.20;;;;117838;1187;25371;-64
2022/09/01 12:29:15;;;;;;;;;11.25;9.50;;;30.18;100888.63;;;;117616;1186;25586;-64
2022/09/01 12:31:47;;;;;;;;;10.00;9.00;;;30.22;100894.40;;;;117820;1187;25007;-68
2022/09/01 12:34:37;;;;;;;;;15.50;9.75;;;30.21;100894.40;;;;117792;1187;25459;-65
2022/09/01 12:37:14;;;;;;;;;13.50;8.75;;;29.98;100896.13;;;;117755;1187;25054;-68
2022/09/01 12:39:49;;;;;;;;;10.25;10.25;;;30.04;100895.35;;;;117707;1188;25312;-65
2022/09/01 12:42:18;;;;;;;;;8.67;8.67;;;29.83;100894.70;;;;117483;1188;25643;-64
2022/09/01 12:45:06;;;;;;;;;11.50;11.00;;;29.83;100898.66;;;;117815;1187;25528;-65
2022/09/01 12:47:36;;;;;;;;;11.00;8.75;;;30.06;100899.42;;;;117571;1186;25945;-67
2022/09/01 12:50:14;;;;;;;;;14.75;13.25;;;30.13;100899.14;;;;117845;1188;24954;-63
2022/09/01 12:52:54;;;;;;;;;15.67;11.00;;;30.18;100895.13;;;;117832;1188;24981;-66
2022/09/01 12:55:58;;;;;;;;;22.00;14.50;;;30.19;100892.88;;;;117753;1188;25468;-66
2022/09/01 12:58:29;;;;;;;;;23.25;15.00;;;30.32;100892.09;;;;117804;1188;25228;-72
2022/09/01 13:01:07;;;;;;;;;18.33;15.33;;;30.41;100896.77;;;;117835;1186;25237;-66
2022/09/01 13:04:05;;;;;;;;;19.00;16.33;;;30.42;100901.34;;;;117789;1187;25161;-67
2022/09/01 13:06:34;;;;;;;;;19.67;16.67;;;30.53;100903.05;;;;117751;1188;25668;-66
2022/09/01 13:09:02;;;;;;;;;20.00;11.50;;;30.51;100905.77;;;;117699;1188;25688;-64
2022/09/01 13:11:32;;;;;;;;;16.50;9.25;;;30.53;100904.72;;;;117503;1188;25047;-65
2022/09/01 13:14:21;;;;;;;;;18.25;11.25;;;30.56;100901.59;;;;117790;1188;24724;-65
2022/09/01 13:16:49;;;;;;;;;17.50;13.75;;;30.58;100899.92;;;;117804;1188;25379;-61
2022/09/01 13:19:18;;;;;;;;;18.33;11.67;;;30.56;100905.70;;;;117716;1186;25306;-63
2022/09/01 13:21:57;;;;;;;;;14.75;10.00;;;30.59;100905.39;;;;117680;1187;25747;-61
2022/09/01 13:24:25;;;;;;;;;18.75;13.25;;;30.65;100909.27;;;;117504;1189;25405;-62
2022/09/01 13:26:58;;;;;;;;;18.25;13.75;;;30.67;100914.52;;;;117679;1188;25294;-63
2022/09/01 13:29:48;;;;;;;;;24.75;17.50;;;30.77;100914.65;;;;117675;1188;25269;-64
2022/09/01 13:32:18;;;;;;;;;24.75;15.00;;;30.78;100916.05;;;;117734;1188;25649;-62
2022/09/01 13:34:51;;;;;;;;;18.75;12.75;;;30.86;100909.80;;;;117476;1188;25029;-62
2022/09/01 13:37:21;;;;;;;;;15.75;9.00;;;30.65;100909.34;;;;117814;1186;25270;-62
2022/09/01 13:39:49;;;;;;;;;13.50;9.50;;;30.53;100909.48;;;;117491;1188;25203;-63
2022/09/01 13:42:18;;;;;;;;;24.50;14.50;;;30.48;100904.42;;;;117364;1188;24906;-66
2022/09/01 13:44:47;;;;;;;;;19.00;13.67;;;30.53;100902.77;;;;117552;1188;24804;-63
2022/09/01 13:47:23;;;;;;;;;21.00;12.33;;;30.58;100901.61;;;;117748;1187;24769;-64
2022/09/01 13:49:57;;;;;;;;;16.50;12.25;;;30.53;100902.36;;;;117728;1188;25064;-64
2022/09/01 13:52:38;;;;;;;;;21.67;15.67;;;30.53;100902.55;;;;117736;1187;25081;-64
2022/09/01 13:55:09;;;;;;;;;19.00;13.33;;;30.44;100905.32;;;;117364;1188;25309;-64
2022/09/01 13:57:37;;;;;;;;;20.75;13.50;;;30.53;100903.16;;;;117643;1188;24871;-62
2022/09/01 14:00:16;;;;;;;;;17.75;14.75;;;30.40;100897.16;;;;117747;1186;25191;-62
2022/09/01 14:02:49;;;;;;;;;23.25;13.00;;;30.39;100898.01;;;;117828;1187;25259;-64
2022/09/01 14:05:25;;;;;;;;;21.50;12.50;;;30.43;100897.56;;;;117761;1188;25448;-64
2022/09/01 14:07:54;;;;;;;;;13.33;11.00;;;30.47;100897.27;;;;117394;1190;25370;-63
2022/09/01 14:10:24;;;;;;;;;19.33;12.67;;;30.47;100896.15;;;;117779;1186;25220;-65
2022/09/01 14:12:52;;;;;;;;;17.25;11.25;;;30.51;100893.54;;;;117426;1188;25976;-64
2022/09/01 14:15:21;;;;;;;;;20.75;12.75;;;30.52;100892.17;;;;117527;1188;24845;-63
2022/09/01 14:17:56;;;;;;;;;20.00;13.75;;;30.50;100892.55;;;;117752;1187;25485;-64
2022/09/01 14:20:28;;;;;;;;;17.25;11.75;;;30.60;100896.48;;;;117615;1188;25488;-62
2022/09/01 14:22:57;;;;;;;;;20.00;12.00;;;30.59;100896.40;;;;117300;1190;25109;-60
2022/09/01 14:25:25;;;;;;;;;18.67;11.00;;;30.56;100899.55;;;;117646;1188;24924;-60
2022/09/01 14:27:55;;;;;;;;;16.50;13.50;;;30.60;100896.40;;;;117747;1188;25684;-59
2022/09/01 14:30:27;;;;;;;;;17.00;12.00;;;30.59;100897.11;;;;117706;1188;25169;-59
2022/09/01 14:33:00;;;;;;;;;17.33;14.67;;;30.61;100898.16;;;;117648;1188;25395;-60
2022/09/01 14:35:32;;;;;;;;;15.75;11.50;;;30.54;100897.06;;;;117726;1188;25394;-60
2022/09/01 14:38:04;;;;;;;;;15.67;10.00;;;30.44;100900.15;;;;117452;1189;25174;-61
2022/09/01 14:40:32;;;;;;;;;19.25;14.00;;;30.27;100904.98;;;;117781;1188;24729;-61
2022/09/01 14:43:01;;;;;;;;;17.67;11.00;;;30.22;100902.64;;;;117635;1187;25503;-61
2022/09/01 14:45:29;;;;;;;;;13.50;11.50;;;30.13;100899.45;;;;117728;1187;24889;-61
2022/09/01 14:47:59;;;;;;;;;11.25;10.00;;;30.05;100897.16;;;;117794;1186;25209;-61
2022/09/01 14:50:31;;;;;;;;;18.00;12.50;;;30.01;100897.48;;;;117772;1187;25612;-60
2022/09/01 14:53:01;;;;;;;;;15.00;11.33;;;30.14;100897.39;;;;117595;1187;25714;-60
2022/09/01 14:55:31;;;;;;;;;15.75;12.25;;;30.19;100892.65;;;;117865;1186;24814;-60
2022/09/01 14:58:00;;;;;;;;;9.75;7.25;;;30.21;100894.48;;;;117853;1188;24860;-58
2022/09/01 15:00:30;;;;;;;;;11.00;10.25;;;30.23;100892.10;;;;117469;1188;25294;-58
2022/09/01 15:02:58;;;;;;;;;14.50;12.50;;;30.26;100893.04;;;;117790;1188;25175;-61
2022/09/01 15:05:27;;;;;;;;;20.50;14.00;;;30.31;100893.56;;;;117810;1187;25241;-58
2022/09/01 15:08:07;;;;;;;;;23.00;13.75;;;30.31;100897.71;;;;117777;1186;25402;-56
2022/09/01 15:10:35;;;;;;;;;20.00;16.75;;;30.34;100896.31;;;;117437;1188;25254;-58
2022/09/01 15:13:03;;;;;;;;;19.25;13.75;;;30.35;100899.90;;;;117832;1187;24882;-60
2022/09/01 15:15:32;;;;;;;;;19.00;17.00;;;30.35;100903.91;;;;117763;1187;25464;-59
2022/09/01 15:18:01;;;;;;;;;21.25;14.00;;;30.33;100903.40;;;;117787;1188;25513;-60
2022/09/01 15:20:44;;;;;;;;;18.00;10.50;;;30.34;100905.41;;;;117581;1188;25103;-60
2022/09/01 15:23:16;;;;;;;;;15.00;14.00;;;30.38;100902.83;;;;117603;1188;25024;-60
2022/09/01 15:25:45;;;;;;;;;18.33;16.33;;;30.40;100906.23;;;;117853;1188;25466;-59
2022/09/01 15:28:14;;;;;;;;;18.00;14.67;;;30.41;100902.41;;;;117793;1186;25159;-58
2022/09/01 15:30:44;;;;;;;;;18.00;16.33;;;30.42;100900.17;;;;117823;1187;24696;-60
2022/09/01 15:33:14;;;;;;;;;21.00;14.33;;;30.28;100898.31;;;;117795;1187;24873;-60
2022/09/01 15:35:44;;;;;;;;;17.50;15.00;;;30.31;100908.35;;;;117726;1187;25425;-61
2022/09/01 15:38:14;;;;;;;;;24.00;16.50;;;30.23;100910.10;;;;117788;1188;24940;-60
2022/09/01 15:40:47;;;;;;;;;22.00;16.00;;;30.15;100913.85;;;;117451;1188;24892;-59
2022/09/01 15:43:27;;;;;;;;;17.67;15.00;;;30.01;100915.67;;;;117437;1188;25065;-59
2022/09/01 15:46:00;;;;;;;;;20.50;15.25;;;29.90;100916.09;;;;117530;1188;24862;-59
2022/09/01 15:48:29;;;;;;;;;18.25;14.25;;;29.91;100914.09;;;;117729;1186;25698;-62
2022/09/01 15:51:20;;;;;;;;;20.67;15.33;;;29.96;100908.04;;;;117550;1188;25144;-59
2022/09/01 15:53:51;;;;;;;;;22.25;17.25;;;30.12;100908.70;;;;117726;1188;24950;-60
2022/09/01 15:56:19;;;;;;;;;16.75;14.50;;;30.11;100904.30;;;;117822;1188;24981;-60
2022/09/01 15:58:49;;;;;;;;;15.50;10.75;;;30.12;100903.46;;;;117602;1188;25382;-57
2022/09/01 16:01:31;;;;;;;;;21.50;15.00;;;30.19;100900.42;;;;117760;1188;25329;-61
2022/09/01 16:04:00;;;;;;;;;19.50;15.25;;;30.23;100902.94;;;;117444;1189;24950;-59
2022/09/01 16:06:28;;;;;;;;;21.00;14.75;;;30.26;100902.27;;;;117565;1188;24884;-62
2022/09/01 16:08:57;;;;;;;;;22.00;15.75;;;30.30;100903.48;;;;117419;1188;25140;-61
2022/09/01 16:11:26;;;;;;;;;13.75;13.00;;;30.30;100905.04;;;;117627;1187;25340;-61
2022/09/01 16:13:55;;;;;;;;;16.25;12.25;;;30.34;100907.49;;;;117818;1187;25670;-61
2022/09/01 16:16:39;;;;;;;;;18.00;16.00;;;30.36;100901.13;;;;117608;1187;24725;-60
2022/09/01 16:19:26;;;;;;;;;14.67;12.00;;;30.34;100904.59;;;;117803;1186;25066;-60
2022/09/01 16:22:12;;;;;;;;;9.33;9.33;;;30.39;100905.94;;;;117816;1187;25612;-61
2022/09/01 16:24:46;;;;;;;;;11.75;10.25;;;30.41;100908.66;;;;117780;1187;24770;-60
2022/09/01 16:27:24;;;;;;;;;17.33;13.00;;;30.42;100909.52;;;;117781;1187;24911;-61
2022/09/01 16:29:55;;;;;;;;;12.25;12.25;;;30.47;100908.09;;;;117728;1187;25022;-60
2022/09/01 16:32:24;;;;;;;;;15.00;13.33;;;30.49;100907.33;;;;117748;1188;25520;-62
2022/09/01 16:34:53;;;;;;;;;14.67;12.67;;;30.51;100909.65;;;;117812;1187;25330;-61
2022/09/01 16:37:47;;;;;;;;;15.00;11.50;;;30.53;100915.02;;;;117686;1188;24870;-62
2022/09/01 16:40:44;;;;;;;;;22.25;15.75;;;30.60;100913.23;;;;117653;1188;25071;-60
2022/09/01 16:43:51;;;;;;;;;27.00;18.75;;;30.60;100913.77;;;;117679;1186;24810;-63
2022/09/01 16:46:28;;;;;;;;;35.50;23.50;;;31.07;100917.30;;;;117374;1189;25662;-60
2022/09/01 16:49:08;;;;;;;;;35.75;23.00;;;30.47;100923.72;;;;117454;1188;25279;-61
2022/09/01 16:52:14;;;;;;;;;18.75;16.50;;;29.99;100922.89;;;;117742;1186;24750;-66
2022/09/01 16:55:11;;;;;;;;;36.25;21.75;;;29.35;100925.92;;;;117671;1188;25176;-64
2022/09/01 16:58:21;;;;;;;;;24.75;19.00;;;29.48;100927.71;;;;117764;1187;25258;-69
2022/09/01 17:01:02;;;;;;;;;30.75;19.75;;;29.57;100925.73;;;;117468;1188;25664;-65
2022/09/01 17:03:53;;;;;;;;;25.50;18.75;;;29.61;100923.73;;;;117476;1189;25506;-71
2022/09/01 17:06:30;;;;;;;;;26.00;19.75;;;29.51;100927.60;;;;117539;1188;24895;-68